Time;durP1;ratioP1;P1;durP2;ratioP2;P2;SDS_P1;SDS_P2;PMS_P1;PMS_P2;Temp;Humidity;BMP_temperature;BMP_pressure;BME280_temperature;BME280_humidity;BME280_pressure;Samples;Min_cycle;Max_cycle;Signal;HPM_P1;HPM_P2
2021/08/18 00:00:14;;;;;;;13.98;6.78;;;16.70;90.70;;;;;;5055220;28;20023;-77
2021/08/18 00:02:40;;;;;;;15.80;6.80;;;16.80;90.70;;;;;;5053588;28;20029;-80
2021/08/18 00:05:10;;;;;;;14.75;6.53;;;16.80;90.80;;;;;;5054089;28;20028;-77
2021/08/18 00:07:35;;;;;;;16.17;7.10;;;16.80;91.00;;;;;;5055156;28;20025;-78
2021/08/18 00:10:03;;;;;;;14.13;6.78;;;16.80;91.10;;;;;;5054548;28;20105;-78
2021/08/18 00:12:29;;;;;;;13.35;6.90;;;16.80;91.20;;;;;;5053412;28;20033;-78
2021/08/18 00:14:54;;;;;;;15.45;7.22;;;16.90;91.30;;;;;;5053085;28;20115;-77
2021/08/18 00:17:20;;;;;;;14.30;6.22;;;16.80;91.30;;;;;;5053587;28;20017;-77
2021/08/18 00:19:46;;;;;;;14.70;7.32;;;16.80;91.70;;;;;;5052923;28;20170;-78
2021/08/18 00:22:12;;;;;;;13.95;6.22;;;16.80;91.50;;;;;;5054196;28;20033;-77
2021/08/18 00:24:37;;;;;;;15.57;6.80;;;16.80;91.60;;;;;;5053451;28;20047;-77
2021/08/18 00:27:03;;;;;;;16.88;7.45;;;16.80;91.50;;;;;;5052685;28;20478;-77
2021/08/18 00:29:28;;;;;;;17.88;6.88;;;16.80;91.30;;;;;;5053167;28;20106;-77
2021/08/18 00:31:54;;;;;;;15.95;6.93;;;16.80;91.10;;;;;;5052302;28;20040;-77
2021/08/18 00:34:20;;;;;;;13.82;7.28;;;16.70;91.20;;;;;;5053020;28;20024;-77
2021/08/18 00:36:46;;;;;;;14.68;6.68;;;16.70;91.10;;;;;;5052420;28;20048;-77
2021/08/18 00:39:11;;;;;;;17.33;6.93;;;16.80;91.20;;;;;;5054157;28;20092;-77
2021/08/18 00:41:37;;;;;;;15.60;6.78;;;16.70;91.20;;;;;;5052752;28;20053;-77
2021/08/18 00:44:05;;;;;;;17.20;7.40;;;16.70;91.30;;;;;;5053450;28;20050;-77
2021/08/18 00:46:32;;;;;;;15.70;7.20;;;16.70;91.30;;;;;;5052810;28;20021;-77
2021/08/18 00:48:58;;;;;;;17.15;6.53;;;16.70;91.20;;;;;;5052222;28;20454;-77
2021/08/18 00:51:23;;;;;;;20.38;8.48;;;16.70;91.30;;;;;;5052949;28;20112;-77
2021/08/18 00:53:50;;;;;;;17.13;6.82;;;16.60;91.40;;;;;;5052066;28;20120;-77
2021/08/18 00:56:16;;;;;;;17.35;7.35;;;16.60;91.40;;;;;;5053886;28;20021;-77
2021/08/18 00:58:41;;;;;;;14.15;7.30;;;16.50;91.40;;;;;;5053818;28;20024;-77
2021/08/18 01:01:07;;;;;;;18.38;7.80;;;16.60;91.60;;;;;;5053469;28;20074;-77
2021/08/18 01:03:33;;;;;;;16.83;7.38;;;16.60;91.50;;;;;;5052169;28;20512;-77
2021/08/18 01:06:00;;;;;;;18.10;7.88;;;16.50;91.40;;;;;;5051990;28;20016;-78
2021/08/18 01:08:25;;;;;;;16.23;7.53;;;16.50;91.50;;;;;;5052446;28;20021;-77
2021/08/18 01:10:51;;;;;;;15.80;6.95;;;16.50;91.60;;;;;;5051862;28;20419;-77
2021/08/18 01:13:17;;;;;;;17.92;7.53;;;16.50;91.70;;;;;;5053283;28;20043;-76
2021/08/18 01:15:43;;;;;;;17.65;7.75;;;16.50;91.80;;;;;;5052213;28;20021;-77
2021/08/18 01:18:08;;;;;;;17.02;7.50;;;16.50;91.70;;;;;;5053213;28;20020;-77
2021/08/18 01:20:42;;;;;;;19.73;7.38;;;16.50;91.80;;;;;;5052645;28;20043;-77
2021/08/18 01:23:10;;;;;;;16.45;7.20;;;16.50;91.80;;;;;;5052039;28;20418;-78
2021/08/18 01:25:37;;;;;;;15.90;7.50;;;16.50;92.00;;;;;;5052335;28;20017;-78
2021/08/18 01:28:05;;;;;;;14.60;6.68;;;16.50;91.90;;;;;;5052924;28;20020;-78
2021/08/18 01:30:34;;;;;;;17.63;7.35;;;16.50;92.00;;;;;;5053369;28;20070;-77
2021/08/18 01:33:03;;;;;;;17.00;7.30;;;16.40;92.10;;;;;;5051430;28;20049;-77
2021/08/18 01:35:34;;;;;;;16.67;6.93;;;16.50;92.10;;;;;;5052122;28;20417;-77
2021/08/18 01:38:02;;;;;;;16.90;6.95;;;16.50;92.10;;;;;;5051713;28;20103;-78
2021/08/18 01:40:29;;;;;;;16.33;7.28;;;16.50;92.00;;;;;;5052184;28;20036;-77
2021/08/18 01:42:54;;;;;;;14.40;7.32;;;16.50;92.10;;;;;;5051910;28;20021;-78
2021/08/18 01:45:27;;;;;;;17.88;7.00;;;16.60;92.10;;;;;;5052193;28;20017;-77
2021/08/18 01:47:53;;;;;;;15.60;6.78;;;16.50;92.10;;;;;;5051750;28;20365;-78
2021/08/18 01:50:20;;;;;;;15.85;7.45;;;16.50;92.00;;;;;;5051670;28;20018;-76
2021/08/18 01:52:53;;;;;;;14.20;6.45;;;16.50;92.10;;;;;;5051743;28;20064;-81
2021/08/18 01:55:26;;;;;;;15.38;6.13;;;16.50;92.20;;;;;;5052177;28;20116;-77
2021/08/18 01:57:56;;;;;;;14.65;6.57;;;16.40;92.20;;;;;;5051438;28;20021;-77
2021/08/18 02:00:22;;;;;;;11.25;6.82;;;16.40;92.30;;;;;;5051835;28;20098;-77
2021/08/18 02:02:48;;;;;;;14.40;6.30;;;16.40;92.40;;;;;;5052724;28;20068;-77
2021/08/18 02:05:14;;;;;;;13.57;5.65;;;16.40;92.50;;;;;;5051605;28;20027;-77
2021/08/18 02:07:40;;;;;;;13.77;6.22;;;16.40;92.60;;;;;;5053120;28;20029;-76
2021/08/18 02:10:09;;;;;;;14.32;6.68;;;16.40;92.90;;;;;;5052300;28;20519;-77
2021/08/18 02:12:37;;;;;;;14.43;6.18;;;16.50;92.90;;;;;;5052754;28;20107;-77
2021/08/18 02:15:12;;;;;;;13.70;7.10;;;16.50;92.80;;;;;;5053798;28;20128;-77
2021/08/18 02:17:39;;;;;;;15.18;6.30;;;16.40;92.80;;;;;;5055455;28;20025;-77
2021/08/18 02:20:08;;;;;;;11.55;5.80;;;16.40;92.90;;;;;;5056217;28;20040;-77
2021/08/18 02:22:33;;;;;;;13.77;5.90;;;16.40;93.00;;;;;;5055540;28;20032;-77
2021/08/18 02:24:59;;;;;;;13.18;6.70;;;16.30;92.90;;;;;;5056044;28;20025;-76
2021/08/18 02:27:25;;;;;;;13.07;6.53;;;16.30;92.90;;;;;;5055448;28;20025;-77
2021/08/18 02:29:50;;;;;;;13.48;5.97;;;16.30;92.80;;;;;;5054946;28;20347;-77
2021/08/18 02:32:16;;;;;;;10.85;6.03;;;16.30;92.80;;;;;;5055999;28;20084;-77
2021/08/18 02:34:42;;;;;;;15.15;6.38;;;16.40;92.90;;;;;;5055279;28;20025;-77
2021/08/18 02:37:07;;;;;;;9.50;5.63;;;16.30;92.80;;;;;;5054849;28;20454;-77
2021/08/18 02:39:33;;;;;;;13.32;6.43;;;16.30;92.80;;;;;;5056890;28;20027;-76
2021/08/18 02:41:58;;;;;;;13.43;6.03;;;16.40;92.90;;;;;;5054515;28;20111;-76
2021/08/18 02:44:24;;;;;;;14.85;6.20;;;16.40;92.90;;;;;;5056321;28;20096;-77
2021/08/18 02:46:50;;;;;;;12.43;6.10;;;16.40;93.00;;;;;;5054263;28;20056;-79
2021/08/18 02:49:17;;;;;;;12.13;6.10;;;16.40;92.90;;;;;;5055155;28;20075;-77
2021/08/18 02:51:44;;;;;;;14.35;6.15;;;16.40;92.80;;;;;;5055108;28;20028;-77
2021/08/18 02:54:10;;;;;;;13.38;6.38;;;16.30;92.80;;;;;;5054483;28;20213;-77
2021/08/18 02:56:35;;;;;;;14.35;6.22;;;16.30;92.70;;;;;;5056326;28;20445;-77
2021/08/18 02:59:01;;;;;;;12.10;6.43;;;16.30;92.70;;;;;;5055542;28;20021;-78
2021/08/18 03:01:26;;;;;;;12.40;5.97;;;16.40;92.80;;;;;;5055985;28;20021;-77
2021/08/18 03:03:52;;;;;;;12.80;6.82;;;16.40;92.70;;;;;;5054274;28;20102;-77
2021/08/18 03:06:18;;;;;;;16.70;6.32;;;16.40;92.70;;;;;;5054664;28;20029;-76
2021/08/18 03:08:43;;;;;;;11.40;6.35;;;16.40;92.70;;;;;;5055778;28;20021;-76
2021/08/18 03:11:09;;;;;;;14.50;5.90;;;16.40;92.70;;;;;;5053944;28;20025;-76
2021/08/18 03:13:34;;;;;;;12.93;6.10;;;16.40;92.60;;;;;;5054410;28;20033;-78
2021/08/18 03:16:00;;;;;;;14.40;6.95;;;16.40;92.70;;;;;;5054390;28;20029;-79
2021/08/18 03:18:27;;;;;;;15.50;6.38;;;16.40;92.70;;;;;;5055891;28;20028;-78
2021/08/18 03:20:53;;;;;;;12.65;5.95;;;16.30;92.70;;;;;;5054440;28;20339;-79
2021/08/18 03:23:19;;;;;;;15.20;6.22;;;16.30;92.80;;;;;;5054750;28;20074;-78
2021/08/18 03:25:45;;;;;;;10.13;5.97;;;16.30;92.80;;;;;;5054492;28;20373;-78
2021/08/18 03:28:10;;;;;;;11.43;5.68;;;16.30;92.70;;;;;;5055049;28;20029;-78
2021/08/18 03:30:36;;;;;;;13.00;6.50;;;16.40;92.80;;;;;;5054291;28;20036;-78
2021/08/18 03:33:01;;;;;;;14.68;6.30;;;16.40;93.00;;;;;;5053338;28;20045;-77
2021/08/18 03:35:27;;;;;;;17.23;6.13;;;16.40;92.90;;;;;;5054122;28;20025;-77
2021/08/18 03:37:53;;;;;;;15.63;6.10;;;16.40;92.90;;;;;;5053617;28;20412;-80
2021/08/18 03:40:18;;;;;;;15.40;6.70;;;16.40;93.00;;;;;;5055239;28;20036;-77
2021/08/18 03:42:44;;;;;;;14.30;6.63;;;16.40;93.10;;;;;;5055161;28;20029;-77
2021/08/18 03:45:11;;;;;;;19.27;6.70;;;16.30;93.10;;;;;;5054645;28;20146;-77
2021/08/18 03:47:38;;;;;;;13.05;7.13;;;16.30;93.20;;;;;;5054377;28;20017;-78
2021/08/18 03:50:05;;;;;;;16.15;7.32;;;16.30;93.30;;;;;;5053612;28;20021;-78
2021/08/18 03:52:31;;;;;;;13.73;6.90;;;16.30;93.20;;;;;;5053999;28;20167;-78
2021/08/18 03:54:57;;;;;;;14.40;6.90;;;16.30;93.20;;;;;;5053491;28;20430;-78
2021/08/18 03:57:22;;;;;;;17.38;7.28;;;16.40;93.40;;;;;;5053925;28;20021;-78
2021/08/18 03:59:48;;;;;;;18.10;7.70;;;16.30;93.30;;;;;;5053846;28;20024;-76
2021/08/18 04:02:13;;;;;;;17.33;7.80;;;16.30;93.40;;;;;;5054614;28;20417;-77
2021/08/18 04:04:39;;;;;;;15.15;7.35;;;16.30;93.40;;;;;;5053755;28;20115;-77
2021/08/18 04:07:05;;;;;;;14.00;7.28;;;16.30;93.50;;;;;;5054024;28;20020;-78
2021/08/18 04:09:30;;;;;;;18.67;7.80;;;16.20;93.60;;;;;;5054919;28;20331;-77
2021/08/18 04:11:56;;;;;;;14.68;7.22;;;16.20;93.70;;;;;;5052900;28;20366;-78
2021/08/18 04:14:21;;;;;;;18.05;8.15;;;16.20;93.70;;;;;;5054498;28;20111;-77
2021/08/18 04:16:47;;;;;;;15.90;7.05;;;16.20;93.90;;;;;;5053493;28;20427;-77
2021/08/18 04:19:13;;;;;;;19.63;7.47;;;16.20;93.90;;;;;;5053054;28;20047;-77
2021/08/18 04:21:38;;;;;;;16.73;7.40;;;16.20;94.00;;;;;;5053349;28;20017;-77
2021/08/18 04:24:04;;;;;;;20.70;7.45;;;16.20;94.10;;;;;;5052887;28;20366;-77
2021/08/18 04:26:30;;;;;;;16.95;8.02;;;16.10;94.10;;;;;;5053171;28;20017;-77
2021/08/18 04:28:56;;;;;;;18.02;7.53;;;16.10;94.20;;;;;;5053272;28;20472;-81
2021/08/18 04:31:22;;;;;;;17.13;6.93;;;16.10;94.20;;;;;;5054183;28;20013;-76
2021/08/18 04:33:48;;;;;;;19.27;8.05;;;16.10;94.30;;;;;;5052620;28;20515;-76
2021/08/18 04:36:15;;;;;;;16.35;7.78;;;16.10;94.30;;;;;;5053707;28;20025;-77
2021/08/18 04:38:41;;;;;;;16.00;7.43;;;16.10;94.30;;;;;;5052425;28;20074;-77
2021/08/18 04:41:06;;;;;;;14.98;7.72;;;16.10;94.30;;;;;;5053763;28;20025;-77
2021/08/18 04:43:32;;;;;;;19.95;8.30;;;16.10;94.30;;;;;;5054135;28;20028;-77
2021/08/18 04:45:58;;;;;;;16.17;7.15;;;16.10;94.30;;;;;;5052460;28;20400;-77
2021/08/18 04:48:23;;;;;;;19.27;8.45;;;16.10;94.40;;;;;;5054038;28;20051;-77
2021/08/18 04:50:49;;;;;;;15.85;7.95;;;16.00;94.50;;;;;;5052899;28;20045;-77
2021/08/18 04:53:14;;;;;;;18.05;8.15;;;16.00;94.60;;;;;;5051487;28;20024;-77
2021/08/18 04:55:40;;;;;;;17.63;7.88;;;16.00;94.60;;;;;;5052721;28;20032;-76
2021/08/18 04:58:06;;;;;;;17.20;7.72;;;16.00;94.60;;;;;;5052228;28;20497;-78
2021/08/18 05:00:32;;;;;;;16.75;7.80;;;16.00;94.60;;;;;;5052684;28;20033;-77
2021/08/18 05:02:58;;;;;;;18.98;7.90;;;16.00;94.60;;;;;;5053998;28;20037;-78
2021/08/18 05:05:23;;;;;;;23.08;8.15;;;16.00;94.60;;;;;;5051600;28;20033;-78
2021/08/18 05:07:50;;;;;;;13.57;7.10;;;16.00;94.60;;;;;;5052576;28;20358;-77
2021/08/18 05:10:16;;;;;;;17.30;7.80;;;16.00;94.70;;;;;;5052124;28;20064;-78
2021/08/18 05:12:42;;;;;;;13.65;7.15;;;16.00;94.70;;;;;;5053317;28;20414;-78
2021/08/18 05:15:08;;;;;;;16.77;7.50;;;16.00;94.70;;;;;;5052740;28;20039;-79
2021/08/18 05:17:34;;;;;;;16.27;8.00;;;16.00;94.70;;;;;;5052022;28;20029;-77
2021/08/18 05:19:59;;;;;;;17.20;7.30;;;15.90;94.80;;;;;;5051723;28;20079;-79
2021/08/18 05:22:25;;;;;;;13.45;6.90;;;15.90;94.90;;;;;;5051318;28;20093;-77
2021/08/18 05:24:51;;;;;;;18.02;7.88;;;15.90;94.90;;;;;;5052891;28;20112;-77
2021/08/18 05:27:16;;;;;;;14.80;6.60;;;16.00;95.00;;;;;;5052403;28;20029;-78
2021/08/18 05:29:42;;;;;;;15.30;6.63;;;15.90;95.10;;;;;;5052091;28;20032;-77
2021/08/18 05:32:08;;;;;;;15.25;7.25;;;15.90;95.10;;;;;;5051987;28;20049;-78
2021/08/18 05:34:33;;;;;;;16.48;7.00;;;15.90;95.20;;;;;;5052183;28;20397;-77
2021/08/18 05:36:59;;;;;;;16.70;7.65;;;15.90;95.20;;;;;;5051786;28;20021;-77
2021/08/18 05:39:24;;;;;;;14.73;6.97;;;16.00;95.20;;;;;;5051914;28;20377;-77
2021/08/18 05:41:50;;;;;;;14.07;6.72;;;16.00;95.30;;;;;;5050825;28;20025;-77
2021/08/18 05:44:16;;;;;;;15.55;6.65;;;16.00;95.20;;;;;;5049196;28;20116;-77
2021/08/18 05:46:41;;;;;;;12.43;6.00;;;16.00;95.50;;;;;;5052923;28;20022;-77
2021/08/18 05:49:07;;;;;;;14.25;6.68;;;16.10;95.20;;;;;;5053388;28;20053;-77
2021/08/18 05:51:33;;;;;;;13.88;6.93;;;16.10;95.30;;;;;;5056001;28;20029;-78
2021/08/18 05:53:58;;;;;;;14.77;6.30;;;16.10;95.20;;;;;;5056487;28;20106;-76
2021/08/18 05:56:24;;;;;;;13.25;6.38;;;16.10;95.30;;;;;;5054803;28;20366;-76
2021/08/18 05:58:49;;;;;;;14.63;6.85;;;16.20;95.20;;;;;;5056920;28;20024;-76
2021/08/18 06:01:15;;;;;;;13.32;6.53;;;16.20;95.20;;;;;;5055736;28;20032;-77
2021/08/18 06:03:42;;;;;;;13.77;6.28;;;16.10;95.30;;;;;;5056102;28;20028;-77
2021/08/18 06:06:08;;;;;;;12.90;6.00;;;16.10;95.30;;;;;;5056785;28;20144;-78
2021/08/18 06:08:34;;;;;;;12.32;6.15;;;16.10;95.40;;;;;;5055505;28;20056;-77
2021/08/18 06:10:59;;;;;;;11.60;6.10;;;16.10;95.40;;;;;;5056303;28;20386;-78
2021/08/18 06:13:25;;;;;;;11.73;5.85;;;16.10;95.50;;;;;;5051382;28;20026;-79
2021/08/18 06:15:52;;;;;;;11.52;5.43;;;16.10;95.50;;;;;;5054173;28;20033;-77
2021/08/18 06:18:17;;;;;;;11.73;5.38;;;16.10;95.50;;;;;;5056318;28;20214;-77
2021/08/18 06:20:43;;;;;;;8.93;5.07;;;16.10;95.50;;;;;;5055714;28;20021;-76
2021/08/18 06:23:08;;;;;;;12.07;4.88;;;16.10;95.60;;;;;;5054624;28;20422;-78
2021/08/18 06:25:34;;;;;;;10.00;5.20;;;16.20;95.50;;;;;;5056485;28;20025;-77
2021/08/18 06:28:00;;;;;;;9.73;4.80;;;16.10;95.50;;;;;;5055723;28;20036;-76
2021/08/18 06:30:25;;;;;;;9.35;4.60;;;16.10;95.50;;;;;;5055061;28;20029;-77
2021/08/18 06:32:51;;;;;;;8.65;4.43;;;16.10;95.60;;;;;;5055154;28;20521;-76
2021/08/18 06:35:17;;;;;;;10.95;5.15;;;16.10;95.50;;;;;;5053991;28;20028;-78
2021/08/18 06:37:42;;;;;;;12.50;5.22;;;16.10;95.40;;;;;;5052858;28;20056;-78
2021/08/18 06:40:10;;;;;;;8.07;4.50;;;16.20;95.50;;;;;;5035819;28;20022;-78
2021/08/18 06:42:40;;;;;;;10.20;5.15;;;16.20;95.40;;;;;;5042466;28;20064;-78
2021/08/18 06:45:06;;;;;;;9.77;4.97;;;16.10;95.50;;;;;;5054687;28;20095;-79
2021/08/18 06:47:32;;;;;;;10.55;4.72;;;16.20;95.50;;;;;;5055101;28;20483;-77
2021/08/18 06:49:58;;;;;;;9.55;4.72;;;16.20;95.50;;;;;;5054978;28;20071;-77
2021/08/18 06:52:24;;;;;;;11.20;4.90;;;16.20;95.50;;;;;;5055471;28;20465;-76
2021/08/18 06:54:51;;;;;;;9.23;4.75;;;16.30;95.50;;;;;;5054815;28;20090;-76
2021/08/18 06:57:16;;;;;;;8.73;4.40;;;16.30;95.50;;;;;;5054282;28;20458;-77
2021/08/18 06:59:42;;;;;;;9.52;5.35;;;16.20;95.60;;;;;;5054842;28;20029;-77
2021/08/18 07:02:08;;;;;;;12.98;4.93;;;16.20;95.70;;;;;;5054088;28;20041;-80
2021/08/18 07:04:33;;;;;;;10.07;5.18;;;16.20;95.70;;;;;;5054499;28;20037;-77
2021/08/18 07:06:59;;;;;;;8.45;4.78;;;16.30;95.70;;;;;;5053989;28;20021;-77
2021/08/18 07:09:24;;;;;;;8.55;4.60;;;16.30;95.70;;;;;;5054038;28;20078;-77
2021/08/18 07:11:50;;;;;;;9.27;4.97;;;16.40;95.70;;;;;;5055603;28;20029;-77
2021/08/18 07:14:15;;;;;;;9.07;4.70;;;16.40;95.70;;;;;;5054276;28;20032;-76
2021/08/18 07:16:41;;;;;;;9.23;4.38;;;16.40;95.60;;;;;;5054546;28;20021;-77
2021/08/18 07:19:07;;;;;;;8.73;4.32;;;16.40;95.60;;;;;;5054350;28;20017;-77
2021/08/18 07:21:33;;;;;;;9.88;4.50;;;16.40;95.60;;;;;;5054417;28;20442;-77
2021/08/18 07:23:59;;;;;;;9.13;4.38;;;16.40;95.50;;;;;;5055764;28;20025;-76
2021/08/18 07:26:25;;;;;;;6.72;3.95;;;16.50;95.50;;;;;;5053967;28;20405;-78
2021/08/18 07:28:51;;;;;;;8.98;4.70;;;16.50;95.40;;;;;;5054592;28;20017;-78
2021/08/18 07:31:17;;;;;;;8.23;4.20;;;16.50;95.40;;;;;;5053913;28;20017;-78
2021/08/18 07:33:43;;;;;;;8.18;4.68;;;16.50;95.30;;;;;;5055621;28;20095;-78
2021/08/18 07:36:08;;;;;;;7.78;4.00;;;16.50;95.30;;;;;;5054621;28;20465;-78
2021/08/18 07:38:34;;;;;;;7.47;3.67;;;16.50;95.40;;;;;;5054695;28;20053;-77
2021/08/18 07:41:00;;;;;;;10.90;4.47;;;16.50;95.40;;;;;;5054587;28;20020;-77
2021/08/18 07:43:25;;;;;;;8.57;4.20;;;16.50;95.50;;;;;;5054155;28;20032;-78
2021/08/18 07:45:51;;;;;;;6.88;3.67;;;16.50;95.50;;;;;;5054675;28;20025;-77
2021/08/18 07:48:17;;;;;;;8.18;3.97;;;16.50;95.40;;;;;;5053974;28;20021;-77
2021/08/18 07:50:42;;;;;;;7.68;3.83;;;16.50;95.40;;;;;;5055380;28;20025;-77
2021/08/18 07:53:08;;;;;;;7.10;4.15;;;16.50;95.30;;;;;;5054715;28;20112;-79
2021/08/18 07:55:34;;;;;;;9.05;4.38;;;16.60;95.30;;;;;;5054100;28;20056;-77
2021/08/18 07:57:59;;;;;;;8.15;4.18;;;16.60;95.30;;;;;;5054581;28;20422;-77
2021/08/18 08:00:25;;;;;;;7.55;3.53;;;16.60;95.30;;;;;;5053955;28;20059;-77
2021/08/18 08:02:51;;;;;;;7.22;3.70;;;16.60;95.30;;;;;;5054421;28;20334;-78
2021/08/18 08:05:17;;;;;;;7.72;3.75;;;16.60;95.30;;;;;;5053772;28;20103;-78
2021/08/18 08:07:44;;;;;;;7.45;3.88;;;16.60;95.30;;;;;;5050870;28;20020;-78
2021/08/18 08:10:11;;;;;;;7.20;3.38;;;16.60;95.10;;;;;;5052313;28;20121;-78
2021/08/18 08:12:37;;;;;;;6.45;3.50;;;16.60;95.20;;;;;;5051468;28;20033;-78
2021/08/18 08:15:05;;;;;;;7.35;3.28;;;16.70;95.20;;;;;;5065378;28;20029;-77
2021/08/18 08:17:31;;;;;;;8.10;3.58;;;16.80;95.00;;;;;;5053461;28;20348;-78
2021/08/18 08:19:57;;;;;;;5.88;3.38;;;16.80;94.90;;;;;;5053455;28;20531;-78
2021/08/18 08:22:22;;;;;;;6.72;3.45;;;16.90;94.90;;;;;;5053146;28;20466;-77
2021/08/18 08:24:48;;;;;;;5.88;3.08;;;16.90;94.80;;;;;;5054653;28;20017;-78
2021/08/18 08:27:14;;;;;;;7.72;3.42;;;17.00;94.60;;;;;;5053937;28;20106;-77
2021/08/18 08:29:40;;;;;;;6.25;3.58;;;17.00;94.50;;;;;;5053751;28;20028;-78
2021/08/18 08:32:06;;;;;;;9.63;3.08;;;17.00;94.50;;;;;;5052420;28;20049;-76
2021/08/18 08:34:32;;;;;;;5.70;3.00;;;17.00;94.50;;;;;;5046171;28;20081;-76
2021/08/18 08:36:57;;;;;;;6.28;3.08;;;17.00;94.40;;;;;;5043020;28;20188;-78
2021/08/18 08:39:23;;;;;;;6.07;2.70;;;17.10;94.50;;;;;;5053048;28;20017;-77
2021/08/18 08:41:49;;;;;;;12.77;3.60;;;17.10;94.30;;;;;;5053130;28;20075;-78
2021/08/18 08:44:23;;;;;;;4.82;2.67;;;17.20;94.20;;;;;;5052368;28;20035;-79
2021/08/18 08:46:51;;;;;;;5.13;2.42;;;17.30;94.00;;;;;;5053945;28;20039;-78
2021/08/18 08:49:19;;;;;;;7.40;2.97;;;17.40;93.70;;;;;;5051851;28;20025;-79
2021/08/18 08:51:46;;;;;;;6.85;2.72;;;17.50;93.70;;;;;;5052939;28;20025;-79
2021/08/18 08:54:11;;;;;;;5.50;2.95;;;17.70;93.50;;;;;;5042917;28;20072;-79
2021/08/18 08:56:37;;;;;;;5.22;2.35;;;17.80;93.10;;;;;;5048921;28;20424;-79
2021/08/18 08:59:03;;;;;;;4.07;2.03;;;17.80;92.80;;;;;;5052567;28;20029;-79
2021/08/18 09:01:59;;;;;;;5.25;2.38;;;17.80;92.80;;;;;;5051928;28;20025;-79
2021/08/18 09:04:29;;;;;;;4.00;2.33;;;17.90;92.80;;;;;;5052500;28;20438;-79
2021/08/18 09:07:08;;;;;;;4.00;2.10;;;18.00;92.90;;;;;;5053528;28;20027;-79
2021/08/18 09:09:35;;;;;;;3.72;2.35;;;18.10;92.70;;;;;;5052121;28;20027;-79
2021/08/18 09:12:05;;;;;;;3.55;2.25;;;18.00;92.40;;;;;;5052783;28;20107;-78
2021/08/18 09:14:31;;;;;;;4.90;2.60;;;18.00;92.60;;;;;;5051537;28;20075;-79
2021/08/18 09:16:56;;;;;;;5.55;2.53;;;18.10;92.50;;;;;;5052544;28;20029;-79
2021/08/18 09:19:30;;;;;;;3.30;1.92;;;18.10;92.40;;;;;;5052122;28;20128;-79
2021/08/18 09:22:06;;;;;;;2.97;2.13;;;18.10;92.30;;;;;;5053776;28;20016;-78
2021/08/18 09:24:32;;;;;;;4.47;2.35;;;18.20;92.20;;;;;;5055515;28;20087;-78
2021/08/18 09:27:08;;;;;;;3.80;2.20;;;18.10;92.10;;;;;;5050848;28;20040;-76
2021/08/18 09:29:45;;;;;;;3.25;1.75;;;18.20;92.10;;;;;;5049376;28;20025;-77
2021/08/18 09:32:28;;;;;;;3.25;2.05;;;18.20;91.70;;;;;;5048394;28;20072;-78
2021/08/18 09:35:03;;;;;;;4.40;1.83;;;18.30;91.80;;;;;;5050811;28;20111;-78
2021/08/18 09:37:31;;;;;;;3.20;2.08;;;18.30;91.70;;;;;;5049675;28;20021;-78
2021/08/18 09:39:57;;;;;;;3.00;2.28;;;18.50;91.80;;;;;;5065657;28;20021;-77
2021/08/18 09:42:29;;;;;;;2.75;1.60;;;18.60;91.50;;;;;;5049425;28;20017;-76
2021/08/18 09:45:12;;;;;;;3.22;1.60;;;18.60;91.20;;;;;;5051380;28;20025;-77
2021/08/18 09:47:53;;;;;;;4.40;1.50;;;18.80;91.00;;;;;;5049952;28;20033;-77
2021/08/18 09:50:21;;;;;;;3.60;1.83;;;18.80;90.80;;;;;;5044800;28;20029;-79
2021/08/18 09:52:47;;;;;;;3.75;1.88;;;18.70;90.70;;;;;;5049503;28;20094;-79
2021/08/18 09:55:13;;;;;;;4.70;1.73;;;18.70;90.90;;;;;;5049410;28;20025;-80
2021/08/18 09:57:38;;;;;;;4.20;1.75;;;18.60;90.60;;;;;;5050162;28;20035;-78
2021/08/18 10:00:05;;;;;;;3.08;1.50;;;18.50;90.70;;;;;;5050408;28;20028;-76
2021/08/18 10:02:31;;;;;;;3.45;1.63;;;18.60;90.90;;;;;;5051991;28;20170;-76
2021/08/18 10:05:00;;;;;;;3.05;2.00;;;18.60;90.90;;;;;;5050821;28;20103;-77
2021/08/18 10:07:27;;;;;;;4.85;1.67;;;18.60;90.70;;;;;;5050438;28;20056;-77
2021/08/18 10:09:54;;;;;;;3.47;1.40;;;18.60;90.80;;;;;;5050811;28;20472;-77
2021/08/18 10:12:20;;;;;;;5.00;2.20;;;18.70;90.70;;;;;;5050516;28;20021;-77
2021/08/18 10:14:46;;;;;;;6.43;2.88;;;18.80;90.60;;;;;;5050669;28;20040;-78
2021/08/18 10:17:11;;;;;;;6.70;2.72;;;18.90;90.60;;;;;;5053043;28;20071;-80
2021/08/18 10:19:38;;;;;;;6.22;2.67;;;18.90;90.80;;;;;;5049822;28;20086;-77
2021/08/18 10:22:04;;;;;;;7.30;3.50;;;18.80;90.80;;;;;;5050257;28;20025;-78
2021/08/18 10:24:35;;;;;;;6.47;3.42;;;18.80;91.00;;;;;;5048818;28;20029;-78
2021/08/18 10:27:04;;;;;;;7.88;3.25;;;18.70;91.00;;;;;;5048761;28;20024;-78
2021/08/18 10:29:38;;;;;;;9.15;3.30;;;18.80;91.00;;;;;;5049933;28;20033;-78
2021/08/18 10:32:05;;;;;;;6.78;3.63;;;18.80;90.80;;;;;;5029893;28;20050;-78
2021/08/18 10:34:47;;;;;;;9.82;3.50;;;18.90;90.70;;;;;;5031531;28;20037;-78
2021/08/18 10:37:14;;;;;;;5.30;2.95;;;18.90;90.80;;;;;;5054687;28;20126;-78
2021/08/18 10:39:43;;;;;;;6.05;2.38;;;19.00;91.20;;;;;;5070440;28;20102;-78
2021/08/18 10:42:17;;;;;;;5.15;2.30;;;19.00;90.10;;;;;;5053454;28;20126;-78
2021/08/18 10:44:48;;;;;;;3.60;2.00;;;19.10;90.60;;;;;;5054831;28;20040;-78
2021/08/18 10:47:21;;;;;;;3.22;1.60;;;19.20;90.40;;;;;;5053791;28;20469;-77
2021/08/18 10:49:58;;;;;;;3.83;1.70;;;19.50;89.30;;;;;;5051979;28;20080;-76
2021/08/18 10:52:30;;;;;;;4.90;1.80;;;19.70;88.60;;;;;;5036363;28;20524;-76
2021/08/18 10:55:08;;;;;;;1.30;1.15;;;19.70;87.70;;;;;;5055961;28;20753;-78
2021/08/18 10:57:47;;;;;;;2.70;1.30;;;19.50;87.70;;;;;;5052998;28;20036;-78
2021/08/18 11:00:31;;;;;;;2.72;1.30;;;19.40;88.40;;;;;;5065840;28;20032;-79
2021/08/18 11:03:13;;;;;;;3.22;1.33;;;19.20;89.70;;;;;;5052061;28;20028;-77
2021/08/18 11:05:38;;;;;;;4.15;1.23;;;19.20;89.90;;;;;;5035021;28;20064;-78
2021/08/18 11:08:13;;;;;;;6.78;1.52;;;19.30;89.80;;;;;;5054282;28;20052;-78
2021/08/18 11:10:41;;;;;;;2.47;1.80;;;19.40;88.60;;;;;;5042909;28;20478;-77
2021/08/18 11:13:10;;;;;;;3.15;1.70;;;19.60;88.60;;;;;;5054268;28;20025;-79
2021/08/18 11:15:50;;;;;;;2.40;1.60;;;19.60;89.30;;;;;;5054203;28;20603;-78
2021/08/18 11:18:18;;;;;;;3.20;1.65;;;19.60;89.60;;;;;;5053477;28;20039;-79
2021/08/18 11:20:49;;;;;;;2.28;1.27;;;19.60;89.30;;;;;;5053715;28;20104;-78
2021/08/18 11:23:21;;;;;;;3.70;1.67;;;19.80;89.20;;;;;;5050646;28;20029;-79
2021/08/18 11:25:47;;;;;;;2.33;1.33;;;19.80;89.00;;;;;;5054387;28;20033;-78
2021/08/18 11:28:24;;;;;;;2.15;1.08;;;19.80;89.00;;;;;;5053778;28;20074;-77
2021/08/18 11:31:02;;;;;;;3.13;1.38;;;19.70;88.90;;;;;;5054367;28;20068;-77
2021/08/18 11:33:29;;;;;;;1.95;1.30;;;19.60;88.10;;;;;;5053573;28;20139;-80
2021/08/18 11:35:55;;;;;;;1.30;0.90;;;19.70;89.20;;;;;;5053823;28;20060;-80
2021/08/18 11:38:21;;;;;;;1.65;1.10;;;19.90;88.30;;;;;;5051971;28;20029;-79
2021/08/18 11:40:49;;;;;;;1.42;0.90;;;20.10;87.30;;;;;;5053287;28;20021;-78
2021/08/18 11:43:15;;;;;;;0.80;0.70;;;20.20;86.90;;;;;;5052124;28;20037;-80
2021/08/18 11:45:47;;;;;;;1.40;0.90;;;20.30;86.20;;;;;;5052064;28;20497;-80
2021/08/18 11:48:13;;;;;;;1.70;0.80;;;20.40;86.30;;;;;;5052622;28;20074;-78
2021/08/18 11:50:50;;;;;;;2.15;1.02;;;20.40;86.00;;;;;;5053441;28;20107;-79
2021/08/18 11:53:17;;;;;;;1.00;0.85;;;20.30;84.90;;;;;;5052044;28;20032;-80
2021/08/18 11:55:43;;;;;;;0.70;0.70;;;20.10;86.30;;;;;;5052257;28;20079;-77
2021/08/18 11:58:09;;;;;;;2.25;1.00;;;20.10;87.10;;;;;;5051646;28;20474;-78
2021/08/18 12:00:35;;;;;;;3.92;0.90;;;20.00;87.20;;;;;;5050935;28;20049;-79
2021/08/18 12:03:02;;;;;;;2.50;0.90;;;20.00;88.00;;;;;;5052017;28;20036;-77
2021/08/18 12:05:33;;;;;;;1.33;0.98;;;19.80;87.90;;;;;;5053331;28;20071;-76
2021/08/18 12:08:06;;;;;;;1.85;0.80;;;19.80;88.50;;;;;;5052211;28;20367;-77
2021/08/18 12:10:41;;;;;;;1.67;1.10;;;19.70;88.80;;;;;;5052632;28;20032;-77
2021/08/18 12:13:15;;;;;;;3.05;1.08;;;19.80;89.50;;;;;;5045617;28;20029;-78
2021/08/18 12:15:46;;;;;;;2.72;0.90;;;19.70;88.60;;;;;;5045442;28;20440;-76
2021/08/18 12:18:32;;;;;;;1.67;0.90;;;19.80;88.50;;;;;;5053324;28;20021;-78
2021/08/18 12:21:19;;;;;;;1.55;0.70;;;19.80;87.80;;;;;;5048783;28;20274;-78
2021/08/18 12:23:49;;;;;;;0.93;0.75;;;19.80;86.90;;;;;;5053074;28;20060;-78
2021/08/18 12:26:31;;;;;;;2.42;1.00;;;19.60;87.80;;;;;;5052336;28;20059;-76
2021/08/18 12:28:59;;;;;;;1.40;0.80;;;19.50;89.90;;;;;;5050851;28;20041;-77
2021/08/18 12:31:26;;;;;;;2.88;1.13;;;19.40;90.80;;;;;;5052386;28;20089;-77
2021/08/18 12:34:08;;;;;;;1.55;0.90;;;19.40;91.30;;;;;;5051312;28;20432;-77
2021/08/18 12:36:34;;;;;;;1.00;0.90;;;19.70;91.40;;;;;;5065057;28;20029;-78
2021/08/18 12:39:00;;;;;;;3.13;1.00;;;19.90;91.00;;;;;;5050831;28;20025;-78
2021/08/18 12:41:28;;;;;;;3.22;0.93;;;20.10;90.60;;;;;;5049532;28;20025;-78